Time;durP1;ratioP1;P1;durP2;ratioP2;P2;SDS_P1;SDS_P2;PMS_P1;PMS_P2;Temp;Humidity;BMP_temperature;BMP_pressure;BME280_temperature;BME280_humidity;BME280_pressure;Samples;Min_cycle;Max_cycle;Signal;HPM_P1;HPM_P2
2021/06/25 00:00:37;;;;;;;7.60;3.63;;;;;;;25.09;100.00;100119.56;1746796;81;20934;-67
2021/06/25 00:03:04;;;;;;;6.57;3.63;;;;;;;25.12;100.00;100120.91;1757441;80;20980;-69
2021/06/25 00:05:31;;;;;;;6.00;2.60;;;;;;;25.12;100.00;100122.24;1762771;81;21607;-67
2021/06/25 00:07:57;;;;;;;6.37;3.80;;;;;;;25.28;100.00;100121.53;1760691;80;22570;-63
2021/06/25 00:10:25;;;;;;;6.73;3.67;;;;;;;25.45;100.00;100111.17;1748636;80;21886;-69
2021/06/25 00:12:51;;;;;;;6.97;3.10;;;;;;;25.71;100.00;100104.98;1759863;80;21486;-69
2021/06/25 00:15:20;;;;;;;7.30;3.40;;;;;;;25.65;100.00;100097.59;1764206;80;20978;-69
2021/06/25 00:17:47;;;;;;;6.23;3.20;;;;;;;25.93;100.00;100093.77;1766593;80;21550;-62
2021/06/25 00:20:15;;;;;;;7.17;3.33;;;;;;;25.97;100.00;100096.11;1764507;80;21575;-69
2021/06/25 00:22:43;;;;;;;4.63;3.03;;;;;;;25.91;100.00;100087.91;1768626;80;21555;-68
2021/06/25 00:25:11;;;;;;;8.73;3.73;;;;;;;25.98;100.00;100082.21;1765476;80;21521;-68
2021/06/25 00:27:38;;;;;;;5.37;3.37;;;;;;;26.01;100.00;100085.64;1765680;80;20994;-63
2021/06/25 00:30:06;;;;;;;5.97;3.40;;;;;;;26.12;100.00;100068.38;1757711;81;20881;-62
2021/06/25 00:32:33;;;;;;;6.17;3.60;;;;;;;25.93;100.00;100073.73;1764024;79;21134;-68
2021/06/25 00:35:00;;;;;;;5.53;3.30;;;;;;;25.81;100.00;100069.38;1766593;80;21048;-68
2021/06/25 00:37:27;;;;;;;6.73;4.10;;;;;;;25.90;100.00;100070.30;1764999;80;20959;-68
2021/06/25 00:39:54;;;;;;;6.83;2.70;;;;;;;25.86;100.00;100067.42;1767699;79;20998;-66
2021/06/25 00:42:20;;;;;;;6.67;3.00;;;;;;;25.79;100.00;100068.86;1764934;80;20938;-62
2021/06/25 00:44:47;;;;;;;8.00;2.90;;;;;;;25.85;100.00;100069.84;1761776;79;21051;-68
2021/06/25 00:47:14;;;;;;;6.90;3.60;;;;;;;25.85;100.00;100072.52;1728734;82;20959;-68
2021/06/25 00:49:41;;;;;;;7.53;3.30;;;;;;;25.79;100.00;100068.31;1765372;80;20978;-67
2021/06/25 00:52:08;;;;;;;7.67;3.20;;;;;;;25.68;100.00;100071.66;1769082;79;20919;-66
2021/06/25 00:54:35;;;;;;;6.83;3.23;;;;;;;25.53;100.00;100073.17;1766848;80;21433;-68
2021/06/25 00:57:02;;;;;;;6.50;3.23;;;;;;;25.52;100.00;100067.59;1769919;79;21116;-67
2021/06/25 00:59:28;;;;;;;6.53;3.40;;;;;;;25.33;100.00;100071.56;1765666;79;20962;-67
2021/06/25 01:01:55;;;;;;;8.13;2.97;;;;;;;25.32;100.00;100069.19;1766459;81;21040;-67
2021/06/25 01:04:22;;;;;;;8.90;3.70;;;;;;;25.39;100.00;100066.42;1766943;79;21006;-67
2021/06/25 01:06:50;;;;;;;5.73;3.23;;;;;;;25.11;100.00;100069.95;1770889;80;21036;-68
2021/06/25 01:09:18;;;;;;;8.00;3.70;;;;;;;24.94;100.00;100068.52;1763204;79;21156;-68
2021/06/25 01:11:45;;;;;;;5.30;3.20;;;;;;;24.99;100.00;100072.45;1766275;79;20931;-68
2021/06/25 01:14:12;;;;;;;6.80;3.50;;;;;;;24.58;100.00;100066.72;1767688;80;21011;-61
2021/06/25 01:16:40;;;;;;;6.97;3.23;;;;;;;24.53;100.00;100069.44;1763421;79;21116;-69
2021/06/25 01:19:14;;;;;;;5.10;3.10;;;;;;;24.43;100.00;100067.64;1764295;81;20994;-69
2021/06/25 01:21:42;;;;;;;7.03;3.27;;;;;;;24.47;100.00;100073.21;1769600;79;21104;-69
2021/06/25 01:24:09;;;;;;;5.37;2.97;;;;;;;24.16;100.00;100073.97;1768896;80;21056;-62
2021/06/25 01:26:35;;;;;;;6.93;3.50;;;;;;;23.98;100.00;100082.06;1760007;79;21167;-68
2021/06/25 01:29:03;;;;;;;6.17;3.50;;;;;;;24.04;100.00;100088.42;1728385;82;21372;-69
2021/06/25 01:31:31;;;;;;;5.83;3.50;;;;;;;23.92;100.00;100077.33;1765851;80;20984;-68
2021/06/25 01:33:57;;;;;;;7.33;3.83;;;;;;;23.87;100.00;100081.89;1768414;80;21957;-69
2021/06/25 01:36:25;;;;;;;7.47;4.00;;;;;;;23.79;100.00;100086.73;1757905;79;20950;-68
2021/06/25 01:38:51;;;;;;;7.10;3.20;;;;;;;23.76;100.00;100083.81;1767961;79;21147;-69
2021/06/25 01:41:19;;;;;;;6.03;3.17;;;;;;;23.55;100.00;100091.85;1770579;79;21139;-67
2021/06/25 01:43:46;;;;;;;4.60;3.90;;;;;;;23.50;100.00;100088.43;1763835;79;20879;-69
2021/06/25 01:46:14;;;;;;;10.87;3.73;;;;;;;23.25;100.00;100093.30;1746356;80;21823;-63
2021/06/25 01:48:41;;;;;;;6.43;3.63;;;;;;;23.17;100.00;100087.21;1757518;80;21411;-68
2021/06/25 01:51:08;;;;;;;4.93;3.33;;;;;;;23.01;100.00;100092.56;1753417;80;21044;-68
2021/06/25 01:53:35;;;;;;;5.97;3.50;;;;;;;22.98;100.00;100082.47;1760236;79;21501;-68
2021/06/25 01:56:02;;;;;;;8.13;3.53;;;;;;;23.21;100.00;100077.63;1765811;81;20974;-61
2021/06/25 01:58:30;;;;;;;5.97;3.00;;;;;;;23.30;100.00;100074.69;1765155;81;21146;-68
2021/06/25 02:01:11;;;;;;;6.20;3.80;;;;;;;23.29;100.00;100071.73;1760700;80;21014;-68
2021/06/25 02:03:38;;;;;;;4.60;3.17;;;;;;;23.49;100.00;100062.91;1756086;79;21011;-67
2021/06/25 02:06:06;;;;;;;6.77;3.50;;;;;;;23.75;100.00;100063.57;1769065;80;21574;-67
2021/06/25 02:08:33;;;;;;;4.33;2.53;;;;;;;24.04;100.00;100059.12;1769560;80;21109;-68
2021/06/25 02:11:01;;;;;;;7.40;3.10;;;;;;;24.27;100.00;100063.50;1764680;80;21118;-68
2021/06/25 02:13:28;;;;;;;6.37;3.47;;;;;;;24.57;100.00;100067.02;1752337;81;20950;-68
2021/06/25 02:15:55;;;;;;;5.70;3.50;;;;;;;25.10;100.00;100060.38;1767751;80;20963;-63
2021/06/25 02:18:21;;;;;;;6.67;2.97;;;;;;;25.35;100.00;100044.06;1755179;80;21092;-67
2021/06/25 02:20:48;;;;;;;6.50;3.50;;;;;;;25.62;100.00;100046.66;1750662;80;21047;-67
2021/06/25 02:23:14;;;;;;;4.70;3.27;;;;;;;25.73;100.00;100038.75;1751601;80;21150;-68
2021/06/25 02:25:41;;;;;;;6.07;3.17;;;;;;;25.94;100.00;100040.60;1751955;80;20932;-67
2021/06/25 02:28:08;;;;;;;7.17;3.30;;;;;;;26.36;100.00;100026.28;1753563;80;20951;-63
2021/06/25 02:30:35;;;;;;;8.73;3.23;;;;;;;26.81;100.00;100030.59;1751570;80;21069;-68
2021/06/25 02:33:02;;;;;;;4.60;3.33;;;;;;;27.33;100.00;100017.81;1756402;80;20971;-68
2021/06/25 02:35:30;;;;;;;11.70;3.83;;;;;;;27.61;100.00;100020.41;1751242;80;21160;-62
2021/06/25 02:37:57;;;;;;;7.23;3.73;;;;;;;28.02;100.00;100015.48;1751554;80;20998;-69
2021/06/25 02:40:23;;;;;;;7.57;3.60;;;;;;;28.33;100.00;100009.58;1769844;80;21038;-62
2021/06/25 02:42:50;;;;;;;6.25;3.22;;;;;;;28.35;100.00;100018.12;1766769;79;20971;-68
2021/06/25 02:45:18;;;;;;;6.45;3.27;;;;;;;28.26;100.00;100017.82;1761000;79;20963;-62
2021/06/25 02:47:45;;;;;;;5.10;2.90;;;;;;;27.87;100.00;100029.47;1770523;80;21140;-69
2021/06/25 02:50:12;;;;;;;7.13;3.40;;;;;;;27.91;100.00;100019.50;1771339;79;20995;-68
2021/06/25 02:52:40;;;;;;;5.67;3.40;;;;;;;27.57;100.00;100026.13;1772774;80;20981;-69
2021/06/25 02:55:11;;;;;;;10.53;3.57;;;;;;;27.45;100.00;100022.64;1771341;80;21096;-69
2021/06/25 02:57:38;;;;;;;6.30;3.37;;;;;;;27.99;100.00;100020.10;1773148;80;21617;-70
2021/06/25 03:00:16;;;;;;;5.27;3.53;;;;;;;28.35;100.00;100017.34;1769886;79;21147;31
2021/06/25 03:02:43;;;;;;;7.33;4.00;;;;;;;28.65;100.00;100016.33;1726774;80;21054;-71
2021/06/25 03:05:12;;;;;;;6.80;4.40;;;;;;;29.29;100.00;100015.35;1719720;80;21136;-71
2021/06/25 03:07:40;;;;;;;6.58;5.45;;;;;;;30.02;100.00;100012.83;1718396;82;21074;-72
2021/06/25 03:10:08;;;;;;;6.87;5.50;;;;;;;30.81;99.52;100005.34;1713348;82;21504;-71
2021/06/25 03:12:35;;;;;;;7.53;4.95;;;;;;;31.40;90.15;100002.61;1718539;81;21815;-71
2021/06/25 03:15:01;;;;;;;10.35;4.40;;;;;;;31.63;86.36;100005.21;1761612;80;21030;-64
2021/06/25 03:17:28;;;;;;;8.40;4.90;;;;;;;32.04;81.00;100002.78;1760507;79;21496;-71
2021/06/25 03:19:57;;;;;;;6.50;3.90;;;;;;;32.38;76.23;100002.95;1754561;80;21480;-73
2021/06/25 03:22:23;;;;;;;7.85;3.65;;;;;;;32.39;75.11;99999.13;1748878;79;20939;-72
2021/06/25 03:24:50;;;;;;;9.78;6.03;;;;;;;32.20;73.95;100005.87;1749963;81;22096;-61
2021/06/25 03:27:16;;;;;;;10.97;8.80;;;;;;;32.04;76.39;100003.56;1756880;80;20852;-72
2021/06/25 03:29:44;;;;;;;19.65;14.98;;;;;;;31.79;79.15;99999.20;1754876;80;21272;-72
2021/06/25 03:32:11;;;;;;;11.43;8.78;;;;;;;31.43;79.03;99993.87;1754144;80;21075;-70
2021/06/25 03:34:37;;;;;;;8.00;4.40;;;;;;;32.00;74.85;99991.88;1756116;80;20884;-69
2021/06/25 03:37:06;;;;;;;7.33;4.45;;;;;;;32.53;70.96;99994.23;1753297;80;20911;-67
2021/06/25 03:39:34;;;;;;;12.30;5.03;;;;;;;33.04;68.97;99995.26;1743676;80;21375;-71
2021/06/25 03:42:02;;;;;;;6.85;3.62;;;;;;;33.65;63.50;99995.10;1749962;81;20979;-71
2021/06/25 03:44:29;;;;;;;5.40;3.12;;;;;;;34.23;58.24;99994.13;1754414;80;20947;-71
2021/06/25 03:46:55;;;;;;;6.00;3.12;;;;;;;34.37;59.15;99995.05;1749824;81;20923;-69
2021/06/25 03:49:22;;;;;;;7.62;5.37;;;;;;;34.83;53.41;99990.73;1727213;80;21589;-63
2021/06/25 03:51:50;;;;;;;14.33;6.85;;;;;;;35.06;52.72;99987.39;1729956;80;20986;-69
2021/06/25 03:54:17;;;;;;;6.67;4.25;;;;;;;35.41;50.73;99983.27;1696215;83;21018;-71
2021/06/25 03:56:44;;;;;;;6.92;5.08;;;;;;;35.73;49.32;99985.85;1736003;81;21064;-71
2021/06/25 03:59:11;;;;;;;5.95;5.05;;;;;;;35.99;47.61;99981.90;1729691;80;20954;-63
2021/06/25 04:01:38;;;;;;;5.30;3.00;;;;;;;36.08;47.92;99987.66;1724987;80;22496;-63
2021/06/25 04:04:05;;;;;;;8.85;4.08;;;;;;;36.40;46.81;99987.59;1695196;82;22256;-69
2021/06/25 04:06:32;;;;;;;5.53;2.50;;;;;;;36.77;44.32;99988.37;1703514;84;20952;-70
2021/06/25 04:08:59;;;;;;;8.55;3.72;;;;;;;36.71;45.70;99988.46;1704075;83;21013;-69
2021/06/25 04:11:26;;;;;;;4.35;2.85;;;;;;;36.87;46.08;99991.03;1693362;84;20944;-66
2021/06/25 04:13:53;;;;;;;7.17;2.85;;;;;;;37.07;45.64;99987.63;1707651;82;21192;-70
2021/06/25 04:16:22;;;;;;;6.05;2.80;;;;;;;37.23;44.66;99990.94;1729904;82;20977;-71
2021/06/25 04:18:49;;;;;;;6.40;2.70;;;;;;;37.12;44.88;99982.65;1703310;84;20937;-71
2021/06/25 04:21:16;;;;;;;5.65;3.80;;;;;;;37.07;45.07;99984.34;1719197;82;21016;-69
2021/06/25 04:23:43;;;;;;;6.78;2.80;;;;;;;37.10;44.49;99986.91;1730152;81;22393;-70
2021/06/25 04:26:10;;;;;;;5.33;2.65;;;;;;;37.17;44.19;99984.28;1704759;83;21153;-68
2021/06/25 04:28:37;;;;;;;7.78;2.80;;;;;;;37.25;44.08;99988.64;1721908;82;20919;-68
2021/06/25 04:31:04;;;;;;;4.20;2.42;;;;;;;37.08;42.97;99993.27;1729596;81;21102;-69
2021/06/25 04:33:31;;;;;;;6.15;2.75;;;;;;;36.75;44.13;99988.74;1731646;80;20934;-67
2021/06/25 04:35:58;;;;;;;8.90;2.98;;;;;;;36.49;43.45;99990.88;1728520;82;21001;-71
2021/06/25 04:38:24;;;;;;;3.45;2.15;;;;;;;36.17;43.32;99997.11;1725734;81;21136;-71
2021/06/25 04:40:51;;;;;;;5.92;2.87;;;;;;;35.95;44.80;100001.38;1735931;82;20970;-70
2021/06/25 04:43:19;;;;;;;7.05;3.67;;;;;;;35.92;45.08;99998.59;1734288;81;20967;-63
2021/06/25 04:45:45;;;;;;;4.78;2.83;;;;;;;35.69;47.31;100005.34;1736408;82;21009;-68
2021/06/25 04:48:15;;;;;;;6.25;3.37;;;;;;;35.88;48.01;100004.50;1736199;81;21023;-71
2021/06/25 04:50:43;;;;;;;7.00;3.90;;;;;;;35.90;47.66;99998.16;1732446;81;22012;-72
2021/06/25 04:53:09;;;;;;;4.15;3.00;;;;;;;35.79;47.39;100004.73;1734545;81;21061;-64
2021/06/25 04:55:43;;;;;;;6.87;4.00;;;;;;;36.00;47.44;99997.60;1737903;81;21056;-64
2021/06/25 04:58:12;;;;;;;14.95;4.85;;;;;;;36.19;47.18;99992.69;1717697;81;21167;-71
2021/06/25 05:00:39;;;;;;;6.47;3.40;;;;;;;36.21;47.30;99987.09;1729301;81;21049;-71
2021/06/25 05:03:07;;;;;;;5.85;3.12;;;;;;;36.53;46.63;99984.92;1743255;80;20980;-69
2021/06/25 05:05:35;;;;;;;8.23;3.20;;;;;;;36.90;45.52;99977.50;1738131;80;21485;-70
2021/06/25 05:08:01;;;;;;;7.40;3.60;;;;;;;37.09;43.54;99983.95;1752162;79;21309;-71
2021/06/25 05:10:28;;;;;;;5.40;4.00;;;;;;;36.68;44.73;99994.65;1728400;79;21051;-71
2021/06/25 05:12:55;;;;;;;9.20;3.40;;;;;;;36.75;45.44;99989.33;1718894;81;21059;-71
2021/06/25 05:15:22;;;;;;;8.50;3.90;;;;;;;36.98;46.01;99992.77;1694533;82;21163;-66
2021/06/25 05:17:50;;;;;;;7.35;3.75;;;;;;;37.19;44.15;99986.03;1660956;84;21122;-71
2021/06/25 05:20:17;;;;;;;7.50;3.67;;;;;;;37.60;43.32;99988.88;1696821;81;21066;-70
2021/06/25 05:22:44;;;;;;;7.47;3.02;;;;;;;37.77;43.26;99978.73;1682741;82;21030;-73
2021/06/25 05:25:13;;;;;;;5.70;3.10;;;;;;;37.61;43.36;99982.27;1754055;80;21048;-67
2021/06/25 05:27:40;;;;;;;6.65;3.22;;;;;;;37.57;43.26;99981.45;1708856;80;21155;-71
2021/06/25 05:30:07;;;;;;;8.28;3.42;;;;;;;37.54;41.38;99980.83;1749304;80;21056;-71
2021/06/25 05:32:34;;;;;;;7.80;3.00;;;;;;;37.36;42.96;99977.91;1732282;80;21486;-70
2021/06/25 05:35:02;;;;;;;5.80;3.30;;;;;;;37.10;43.20;99973.31;1738476;80;21053;-71
2021/06/25 05:37:28;;;;;;;4.75;2.83;;;;;;;37.19;43.29;99969.73;1734948;80;21477;-71
2021/06/25 05:39:55;;;;;;;7.50;2.67;;;;;;;37.23;42.25;99970.55;1690271;83;21121;-71
2021/06/25 05:42:21;;;;;;;8.08;3.12;;;;;;;37.39;42.07;99966.27;1751891;80;21047;-72
2021/06/25 05:44:48;;;;;;;5.83;2.75;;;;;;;37.44;41.96;99974.91;1749143;80;20874;-71
2021/06/25 05:47:15;;;;;;;4.30;2.83;;;;;;;37.69;40.44;99968.95;1739671;80;20976;-63
2021/06/25 05:49:42;;;;;;;5.55;2.67;;;;;;;37.79;40.99;99972.36;1751224;80;21563;-64
2021/06/25 05:52:08;;;;;;;7.47;3.67;;;;;;;37.83;41.60;99977.25;1751593;80;21180;-70
2021/06/25 05:54:35;;;;;;;5.00;3.00;;;;;;;37.97;39.16;99977.42;1751912;80;21003;-70
2021/06/25 05:57:03;;;;;;;7.70;3.22;;;;;;;37.80;37.60;99982.07;1748987;80;21048;-70
2021/06/25 05:59:30;;;;;;;8.45;3.70;;;;;;;37.74;38.51;99973.48;1759586;80;21493;-64
2021/06/25 06:01:57;;;;;;;7.10;4.00;;;;;;;37.79;36.24;99983.81;1757800;80;21023;-69
2021/06/25 06:04:24;;;;;;;8.35;3.98;;;;;;;37.48;35.68;99982.53;1769350;79;22567;-70
2021/06/25 06:06:51;;;;;;;9.75;3.10;;;;;;;37.35;36.45;99981.17;1756673;79;20953;-73
2021/06/25 06:09:18;;;;;;;10.43;3.20;;;;;;;37.21;36.63;99983.16;1768155;79;20884;-70
2021/06/25 06:11:45;;;;;;;9.10;3.75;;;;;;;36.95;36.54;99978.56;1764635;79;21138;-64
2021/06/25 06:14:11;;;;;;;8.93;3.87;;;;;;;36.86;38.70;99975.31;1762483;79;21100;-71
2021/06/25 06:16:39;;;;;;;7.67;3.12;;;;;;;37.17;37.30;99980.20;1769458;79;21143;-73
2021/06/25 06:19:06;;;;;;;7.50;3.10;;;;;;;37.19;37.35;99969.73;1770291;79;20937;-72
2021/06/25 06:32:22;;;;;;;8.30;3.20;;;;;;;37.10;35.61;99970.60;1768635;79;20987;-72
2021/06/25 06:34:47;;;;;;;14.80;4.25;;;;;;;36.92;35.35;99965.68;1772703;79;20921;-66
2021/06/25 06:37:20;;;;;;;10.18;4.03;;;;;;;36.91;35.32;99968.77;1741225;80;21434;-69
2021/06/25 06:39:46;;;;;;;10.40;3.98;;;;;;;36.89;36.17;99969.13;1697154;83;21114;-73
2021/06/25 06:42:12;;;;;;;11.20;4.20;;;;;;;37.09;37.57;99979.88;1717280;81;21153;-69
2021/06/25 06:44:39;;;;;;;15.58;5.35;;;;;;;37.25;36.47;99975.05;1704495;81;21036;-63
2021/06/25 06:47:08;;;;;;;12.50;4.45;;;;;;;37.33;35.66;99978.06;1725569;81;21051;-64
2021/06/25 06:49:34;;;;;;;15.53;5.47;;;;;;;37.29;35.78;99982.67;1725051;82;21459;-71
2021/06/25 06:52:05;;;;;;;15.98;4.62;;;;;;;37.12;37.19;99979.15;1724812;81;20925;-72
2021/06/25 06:54:29;;;;;;;12.85;4.55;;;;;;;37.10;37.19;99982.83;1732915;81;21999;-70
2021/06/25 06:56:56;;;;;;;11.33;4.25;;;;;;;37.19;37.89;99981.95;1728501;81;20999;-64
2021/06/25 06:59:23;;;;;;;13.53;4.67;;;;;;;37.25;37.06;99985.93;1709850;81;21525;-67
2021/06/25 07:01:49;;;;;;;12.28;4.40;;;;;;;37.32;37.18;99982.52;1705856;81;21194;-69
2021/06/25 07:04:16;;;;;;;11.20;4.25;;;;;;;37.38;37.63;99979.08;1723665;81;20977;-69
2021/06/25 07:06:43;;;;;;;12.28;4.53;;;;;;;37.50;37.31;99987.00;1720063;82;21154;-69
2021/06/25 07:09:09;;;;;;;13.83;4.87;;;;;;;37.37;38.59;99986.26;1698347;82;21125;-64
2021/06/25 07:11:36;;;;;;;13.68;4.67;;;;;;;37.28;39.92;99977.59;1677913;84;21377;-68
2021/06/25 07:14:04;;;;;;;16.65;5.33;;;;;;;37.42;39.07;99984.01;1687334;82;21135;-69
2021/06/25 07:16:31;;;;;;;17.75;5.62;;;;;;;37.59;38.34;99977.80;1686213;81;21330;-72
2021/06/25 07:18:59;;;;;;;21.52;5.75;;;;;;;37.70;37.15;99969.17;1696790;81;22380;-69
2021/06/25 07:21:26;;;;;;;26.93;6.30;;;;;;;37.88;36.29;99979.65;1681964;81;21532;-64
2021/06/25 07:23:53;;;;;;;19.17;5.42;;;;;;;38.14;35.34;99977.94;1645040;84;21223;-69
2021/06/25 07:26:20;;;;;;;18.27;5.58;;;;;;;37.86;35.29;99981.95;1692748;82;21106;-68
2021/06/25 07:28:47;;;;;;;10.90;4.47;;;;;;;37.73;35.58;99986.08;1670661;84;21076;-68
2021/06/25 07:31:14;;;;;;;10.35;3.83;;;;;;;37.83;35.58;99988.72;1723078;81;21140;-70
2021/06/25 07:33:42;;;;;;;10.50;4.10;;;;;;;37.87;35.63;99980.00;1708027;81;21094;-64
2021/06/25 07:36:09;;;;;;;19.95;4.75;;;;;;;38.02;36.02;99985.03;1712039;81;21114;-67
2021/06/25 07:38:36;;;;;;;18.05;4.40;;;;;;;38.26;33.96;99986.39;1706644;81;21028;-68
2021/06/25 07:41:03;;;;;;;18.65;5.22;;;;;;;38.60;34.18;99977.52;1702106;81;21573;-69
2021/06/25 07:43:31;;;;;;;22.55;5.85;;;;;;;38.75;32.67;99979.16;1705131;81;21155;-69
2021/06/25 07:45:58;;;;;;;16.37;4.33;;;;;;;38.68;33.91;99977.75;1706736;81;21077;-67
2021/06/25 07:48:25;;;;;;;18.50;5.33;;;;;;;38.89;32.17;99983.95;1701889;81;21110;-67
2021/06/25 07:50:52;;;;;;;26.70;5.97;;;;;;;38.97;32.59;99983.40;1702222;81;21044;-67
2021/06/25 07:53:18;;;;;;;25.55;6.72;;;;;;;38.97;31.86;99979.31;1702860;81;21007;-67
2021/06/25 07:55:45;;;;;;;21.42;6.35;;;;;;;39.13;31.97;99977.03;1698295;81;21147;-68
2021/06/25 08:00:54;;;;;;;23.25;6.53;;;;;;;39.26;31.98;99974.21;1741280;80;21030;-69
2021/06/25 08:03:21;;;;;;;21.97;6.97;;;;;;;39.19;32.44;99968.70;1748488;80;21044;-63
2021/06/25 08:05:49;;;;;;;19.85;5.90;;;;;;;39.38;33.00;99972.48;1719914;80;21011;-69
2021/06/25 08:08:16;;;;;;;20.10;5.30;;;;;;;39.53;32.20;99962.98;1687301;83;21136;-68
2021/06/25 08:10:44;;;;;;;16.48;5.72;;;;;;;39.55;32.07;99972.91;1684090;83;20952;-70
2021/06/25 08:13:11;;;;;;;18.37;5.97;;;;;;;39.49;31.22;99973.88;1703812;82;21496;-65
2021/06/25 08:15:38;;;;;;;21.48;6.35;;;;;;;39.50;31.60;99971.34;1739534;80;21050;-69
2021/06/25 08:18:06;;;;;;;18.10;5.60;;;;;;;39.66;33.58;99972.34;1741848;80;20948;-69
2021/06/25 08:20:33;;;;;;;25.97;6.05;;;;;;;40.03;32.43;99978.07;1740379;81;21018;-69
2021/06/25 08:22:59;;;;;;;20.12;6.40;;;;;;;40.20;31.75;99980.06;1735715;81;20940;-67
2021/06/25 08:25:26;;;;;;;15.53;4.97;;;;;;;39.98;30.88;99977.11;1736603;81;21034;-63
2021/06/25 08:27:52;;;;;;;22.10;6.08;;;;;;;40.12;31.06;99983.94;1735782;81;21607;-67
2021/06/25 08:30:24;;;;;;;17.27;5.72;;;;;;;40.19;31.27;99975.75;1734561;81;21109;-68
2021/06/25 08:32:48;;;;;;;14.43;4.83;;;;;;;40.25;30.54;99978.30;1737621;81;21156;-67
2021/06/25 08:35:15;;;;;;;14.15;4.78;;;;;;;40.35;31.06;99976.73;1743353;80;20906;-69
2021/06/25 08:37:41;;;;;;;18.45;5.00;;;;;;;40.49;31.31;99969.09;1739670;80;20923;-64
2021/06/25 08:40:09;;;;;;;18.15;5.40;;;;;;;40.57;30.93;99969.29;1742943;80;20963;-68
2021/06/25 08:42:39;;;;;;;19.30;5.75;;;;;;;40.60;29.95;99964.41;1738815;80;20943;-68
2021/06/25 08:45:08;;;;;;;21.87;5.58;;;;;;;40.48;31.24;99966.17;1743184;80;21104;-68
2021/06/25 08:47:39;;;;;;;14.18;4.62;;;;;;;40.62;31.04;99957.98;1739029;80;21121;-64
2021/06/25 08:50:08;;;;;;;17.92;5.08;;;;;;;40.79;30.41;99963.95;1740921;80;21547;-68
2021/06/25 08:52:34;;;;;;;16.25;4.00;;;;;;;40.89;29.48;99964.34;1732542;80;20904;-69
2021/06/25 08:55:01;;;;;;;14.53;5.22;;;;;;;40.69;28.48;99962.06;1703272;80;20948;-68
2021/06/25 08:57:36;;;;;;;17.92;5.30;;;;;;;40.43;29.18;99966.58;1733987;80;21101;-67
2021/06/25 09:00:06;;;;;;;17.37;4.95;;;;;;;40.46;29.92;99961.67;1695651;81;21305;-67
2021/06/25 09:02:35;;;;;;;16.15;5.83;;;;;;;40.43;29.34;99960.53;1703747;82;21071;-68
2021/06/25 09:05:08;;;;;;;14.10;4.65;;;;;;;40.55;27.32;99963.42;1692379;83;21007;-66
2021/06/25 09:07:43;;;;;;;14.78;4.15;;;;;;;40.65;25.25;99963.22;1702888;82;22208;-66
2021/06/25 09:10:10;;;;;;;14.38;3.95;;;;;;;40.51;25.88;99959.33;1694485;83;21283;-67
2021/06/25 09:12:38;;;;;;;10.58;3.20;;;;;;;40.56;25.18;99954.08;1707830;82;21481;-67
2021/06/25 09:15:11;;;;;;;14.07;4.92;;;;;;;40.62;25.54;99959.94;1694019;83;21528;-67
2021/06/25 09:17:59;;;;;;;13.18;3.72;;;;;;;40.54;26.31;99955.82;1699228;83;20988;-69
2021/06/25 09:20:32;;;;;;;23.85;4.92;;;;;;;40.87;25.39;99958.47;1692276;82;21004;-65
2021/06/25 09:23:00;;;;;;;15.13;3.70;;;;;;;41.04;25.52;99961.77;1707678;82;21759;-65
2021/06/25 09:25:27;;;;;;;15.30;4.25;;;;;;;40.80;25.27;99959.27;1710157;82;22152;-66
2021/06/25 09:27:56;;;;;;;17.37;4.37;;;;;;;40.81;24.97;99952.65;1701016;82;21288;-66
2021/06/25 09:30:24;;;;;;;13.38;4.22;;;;;;;40.75;24.53;99952.27;1702128;82;20988;-67
2021/06/25 09:32:51;;;;;;;17.48;4.70;;;;;;;40.76;24.96;99947.58;1653799;86;20960;-65
2021/06/25 09:35:21;;;;;;;15.30;4.45;;;;;;;40.75;24.39;99945.43;1643491;84;23109;-67
2021/06/25 09:37:53;;;;;;;17.70;3.87;;;;;;;40.86;25.06;99949.50;1708769;82;20876;-66
2021/06/25 09:40:20;;;;;;;20.55;5.70;;;;;;;41.15;25.77;99952.15;1695414;83;21065;-67
2021/06/25 09:43:09;;;;;;;13.20;4.00;;;;;;;41.15;25.52;99944.72;1704837;82;20935;-66
2021/06/25 09:45:36;;;;;;;11.63;4.00;;;;;;;41.37;25.82;99948.69;1655980;85;21402;-67
2021/06/25 09:48:03;;;;;;;12.00;3.87;;;;;;;41.44;24.41;99941.23;1755224;80;21123;-67
2021/06/25 09:50:33;;;;;;;14.00;4.30;;;;;;;41.47;25.19;99943.19;1740899;80;21038;-70
2021/06/25 09:53:05;;;;;;;16.12;3.87;;;;;;;41.57;24.84;99937.46;1739879;80;26598;-65
2021/06/25 09:55:57;;;;;;;13.35;3.25;;;;;;;41.56;25.39;99938.62;1738410;80;22031;-69
2021/06/25 10:01:22;;;;;;;16.77;4.33;;;;;;;41.61;25.29;99927.27;1744700;80;21120;-68
2021/06/25 10:04:01;;;;;;;16.02;4.50;;;;;;;41.68;24.51;99925.84;1743990;80;21104;-69
2021/06/25 10:06:38;;;;;;;17.05;3.85;;;;;;;41.66;24.48;99933.67;1738470;80;21085;-70
2021/06/25 10:09:01;;;;;;;17.05;3.83;;;;;;;41.43;24.32;99928.75;1750375;80;21082;-67
2021/06/25 10:11:30;;;;;;;9.28;2.98;;;;;;;41.46;23.40;99934.02;1748506;80;20916;-67
2021/06/25 10:14:03;;;;;;;;;;;;;;;41.33;21.96;99934.46;1757184;80;21123;-63
2021/06/25 10:16:30;;;;;;;11.70;3.42;;;;;;;41.15;21.59;99935.15;1753107;80;20219;-67
2021/06/25 10:18:58;;;;;;;13.48;3.05;;;;;;;41.01;22.96;99939.31;1747928;80;20962;-68
2021/06/25 10:21:28;;;;;;;13.22;2.83;;;;;;;40.78;22.64;99943.28;1749437;80;20873;-68
2021/06/25 10:24:00;;;;;;;13.85;2.98;;;;;;;40.76;22.02;99938.78;1753543;80;21037;-67
2021/06/25 10:26:27;;;;;;;15.48;3.83;;;;;;;40.97;22.24;99935.79;1756831;80;21117;-67
2021/06/25 10:28:54;;;;;;;11.35;3.22;;;;;;;40.79;22.23;99937.99;1727395;81;20918;-66
2021/06/25 10:31:23;;;;;;;10.63;2.45;;;;;;;40.79;22.87;99946.20;1721142;81;20966;-65
2021/06/25 10:33:51;;;;;;;10.68;3.85;;;;;;;40.75;21.24;99948.16;1725760;81;21028;-68
2021/06/25 10:36:22;;;;;;;11.25;3.37;;;;;;;40.56;21.00;99946.66;1718621;80;20895;-65
2021/06/25 10:38:49;;;;;;;11.50;3.08;;;;;;;40.33;20.62;99939.47;1748299;80;22451;-67
2021/06/25 10:41:17;;;;;;;10.60;3.02;;;;;;;40.16;21.31;99943.80;1734017;81;21046;-64
2021/06/25 10:43:53;;;;;;;8.78;3.05;;;;;;;40.26;22.12;99940.84;1737633;80;20994;-69
2021/06/25 10:46:32;;;;;;;11.88;3.33;;;;;;;40.39;21.61;99926.98;1739609;81;21026;-68
2021/06/25 10:49:15;;;;;;;8.70;2.98;;;;;;;40.63;22.57;99934.94;1736168;80;20905;-65
2021/06/25 10:51:45;;;;;;;12.25;4.08;;;;;;;40.59;21.92;99930.07;1737397;81;21794;-67
2021/06/25 10:54:17;;;;;;;13.45;4.12;;;;;;;40.48;22.10;99921.09;1736158;80;23399;-69
2021/06/25 10:56:51;;;;;;;10.50;3.00;;;;;;;40.57;22.11;99921.48;1733337;80;21042;-66
2021/06/25 10:59:27;;;;;;;9.73;2.87;;;;;;;40.49;22.19;99924.02;1733412;81;21122;-69
2021/06/25 11:02:02;;;;;;;10.40;2.85;;;;;;;40.34;21.65;99919.94;1750073;81;21005;-69
2021/06/25 11:04:42;;;;;;;10.38;2.77;;;;;;;40.18;22.57;99917.45;1745119;80;21418;-67
2021/06/25 11:07:15;;;;;;;8.18;3.67;;;;;;;40.26;22.09;99916.26;1750880;80;21054;-69
2021/06/25 11:09:56;;;;;;;10.63;2.50;;;;;;;40.38;21.40;99914.47;1740578;80;20979;-66
2021/06/25 11:12:39;;;;;;;9.33;2.25;;;;;;;40.37;20.61;99915.06;1752134;80;21120;-66
2021/06/25 11:15:11;;;;;;;8.33;2.58;;;;;;;40.28;19.20;99911.20;1760485;80;21064;-67
2021/06/25 11:17:54;;;;;;;8.88;2.85;;;;;;;40.04;20.26;99906.69;1752500;80;21843;-67
2021/06/25 11:20:39;;;;;;;9.93;3.30;;;;;;;39.96;21.58;99906.51;1745792;80;21075;-65
2021/06/25 11:23:16;;;;;;;11.28;2.70;;;;;;;40.03;22.01;99913.33;1750011;80;21010;-67
2021/06/25 11:26:01;;;;;;;7.15;2.40;;;;;;;40.11;21.73;99914.88;1747681;80;21459;-65
2021/06/25 11:28:38;;;;;;;10.95;2.98;;;;;;;40.25;21.66;99914.12;1742409;80;21046;-66
2021/06/25 11:31:09;;;;;;;8.05;2.95;;;;;;;40.42;21.56;99915.83;1748532;80;21051;-64
2021/06/25 11:34:00;;;;;;;9.70;3.20;;;;;;;40.29;22.16;99914.89;1745422;80;21497;-66
2021/06/25 11:36:52;;;;;;;10.38;2.87;;;;;;;40.16;22.36;99908.30;1741532;80;20921;-65
2021/06/25 11:39:34;;;;;;;7.25;3.02;;;;;;;40.25;22.20;99917.44;1752704;80;21054;-70
2021/06/25 11:42:10;;;;;;;10.28;2.80;;;;;;;40.12;22.30;99920.59;1744333;80;20933;-68
2021/06/25 11:44:43;;;;;;;11.38;2.83;;;;;;;39.86;22.19;99913.55;1744739;80;21706;-67
2021/06/25 11:47:22;;;;;;;10.03;3.02;;;;;;;39.83;22.59;99914.91;1745409;80;21038;-66